Главная страница
METAR-TAF:

METAR-TAF

Аэропорты :

Ängelholm–Helsingborg

Хельсингборг, Швеция

широта: 56-17-46N, долгота: 012-50-50E, высота над уровнем моря: 21 м

Текущие метеонаблюдения

Эта сводка был подготовлена 37 минут назад, в 21:50 UTC
Ветер 3 Узел от восточно-северо-восточный, изменяющийся между северный и юго-восточный
Температура 5°C
Влажность 93%
Давление 1010 hPa
Видимость 10 км и более

METAR: ESTA 072150Z AUTO 07003KT 010V130 9999 BKN016/// BKN025/// OVC034/// 05/04 Q1010 REDZ

Время: 00:27 (22:27 UTC)

Прогноз

Эта сводка был подготовлена 8 часа и 17 минут назад, в 14:10 UTC
Прогноз действительный с 07-го 15 UTC до 07-го 17 UTC
Ветер 10 Узел от западный
Видимость 10 км и более
Отдельные облака на высоте 4000 фута
временами
С 07-го 15 UTC до 07-го 17 UTC
небольшая облачность на высоте 2000 фута, Кучево-дождевые.

TAF: ESTA 071410Z 0715/0717 27010KT 9999 SCT040 TEMPO 0715/0717 FEW020CB

Метеонаблюдения и прогнозы для более 4000 аэропортов (сводки METAR и TAF).

Имеющиеся станции представлены на карте желтыми и красными точками.

Чтобы увидеть название станции, наведите на нее мышь.

Затем щелкните, чтобы увидеть метеонаблюдения и метеопрогнозы.

Управление картой: чтобы увеличить масштаб, щелкните зеленые кнопки с черным крестиком; чтобы уменьшить масштаб, щелкните зеленую кнопку с тире; для просмотра соседних карт щелкайте зеленые стрелки.


METAR-TAF: